sensor_id;sensor_type;location;lat;lon;timestamp;pressure;altitude;pressure_sealevel;temperature;humidity
35910;BME280;22004;49.120;-0.200;2023-06-14T00:01:00;101149.69;;;17.98;76.44
35910;BME280;22004;49.120;-0.200;2023-06-14T00:03:29;101146.53;;;18.01;76.30
35910;BME280;22004;49.120;-0.200;2023-06-14T00:05:54;101140.47;;;17.99;76.42
35910;BME280;22004;49.120;-0.200;2023-06-14T00:08:19;101145.53;;;17.95;76.24
35910;BME280;22004;49.120;-0.200;2023-06-14T00:10:46;101135.81;;;17.74;76.85
35910;BME280;22004;49.120;-0.200;2023-06-14T00:13:12;101141.59;;;17.91;76.31
35910;BME280;22004;49.120;-0.200;2023-06-14T00:15:37;101131.47;;;17.67;76.92
35910;BME280;22004;49.120;-0.200;2023-06-14T00:18:03;101135.41;;;17.71;77.10
35910;BME280;22004;49.120;-0.200;2023-06-14T00:20:29;101135.00;;;17.74;76.63
35910;BME280;22004;49.120;-0.200;2023-06-14T00:22:56;101139.72;;;17.85;76.07
35910;BME280;22004;49.120;-0.200;2023-06-14T00:25:23;101137.59;;;17.94;76.54
35910;BME280;22004;49.120;-0.200;2023-06-14T00:27:50;101135.44;;;17.64;76.65
35910;BME280;22004;49.120;-0.200;2023-06-14T00:30:16;101131.44;;;17.73;76.73
35910;BME280;22004;49.120;-0.200;2023-06-14T00:32:41;101130.88;;;17.58;77.57
35910;BME280;22004;49.120;-0.200;2023-06-14T00:35:08;101140.97;;;17.89;76.88
35910;BME280;22004;49.120;-0.200;2023-06-14T00:37:33;101134.28;;;17.92;76.24
35910;BME280;22004;49.120;-0.200;2023-06-14T00:39:59;101137.88;;;17.79;77.13
35910;BME280;22004;49.120;-0.200;2023-06-14T00:42:25;101143.91;;;17.88;76.96
35910;BME280;22004;49.120;-0.200;2023-06-14T00:44:51;101144.13;;;17.86;76.62
35910;BME280;22004;49.120;-0.200;2023-06-14T00:47:16;101143.91;;;17.88;76.90
35910;BME280;22004;49.120;-0.200;2023-06-14T00:49:42;101142.06;;;17.81;76.84
35910;BME280;22004;49.120;-0.200;2023-06-14T00:52:08;101141.06;;;17.76;77.14
35910;BME280;22004;49.120;-0.200;2023-06-14T00:54:37;101150.22;;;17.75;77.12
35910;BME280;22004;49.120;-0.200;2023-06-14T00:57:02;101145.56;;;17.44;78.06
35910;BME280;22004;49.120;-0.200;2023-06-14T00:59:28;101138.34;;;17.69;77.79
35910;BME280;22004;49.120;-0.200;2023-06-14T01:01:53;101148.47;;;17.49;77.65
35910;BME280;22004;49.120;-0.200;2023-06-14T01:04:18;101149.47;;;17.54;77.66
35910;BME280;22004;49.120;-0.200;2023-06-14T01:07:02;101139.44;;;17.62;77.69
35910;BME280;22004;49.120;-0.200;2023-06-14T01:12:38;101153.59;;;17.77;77.20
35910;BME280;22004;49.120;-0.200;2023-06-14T01:15:04;101153.25;;;17.53;78.01
35910;BME280;22004;49.120;-0.200;2023-06-14T01:17:30;101153.59;;;17.77;77.28
35910;BME280;22004;49.120;-0.200;2023-06-14T01:20:00;101151.47;;;17.34;77.01
35910;BME280;22004;49.120;-0.200;2023-06-14T01:22:26;101146.28;;;17.64;77.22
35910;BME280;22004;49.120;-0.200;2023-06-14T01:24:52;101149.41;;;17.74;77.49
35910;BME280;22004;49.120;-0.200;2023-06-14T01:27:24;101153.97;;;17.80;76.83
35910;BME280;22004;49.120;-0.200;2023-06-14T01:29:54;101154.19;;;17.79;77.21
35910;BME280;22004;49.120;-0.200;2023-06-14T01:32:22;101150.81;;;17.83;77.00
35910;BME280;22004;49.120;-0.200;2023-06-14T01:34:48;101143.97;;;17.74;76.65
35910;BME280;22004;49.120;-0.200;2023-06-14T01:37:14;101140.59;;;17.86;77.11
35910;BME280;22004;49.120;-0.200;2023-06-14T01:39:40;101148.94;;;17.84;76.71
35910;BME280;22004;49.120;-0.200;2023-06-14T01:42:07;101144.03;;;17.61;77.63
35910;BME280;22004;49.120;-0.200;2023-06-14T01:44:32;101150.41;;;17.80;77.21
35910;BME280;22004;49.120;-0.200;2023-06-14T01:46:58;101138.53;;;17.74;77.44
35910;BME280;22004;49.120;-0.200;2023-06-14T01:49:23;101136.88;;;17.73;77.43
35910;BME280;22004;49.120;-0.200;2023-06-14T01:51:49;101143.41;;;17.59;77.75
35910;BME280;22004;49.120;-0.200;2023-06-14T01:54:14;101138.53;;;17.81;77.16
35910;BME280;22004;49.120;-0.200;2023-06-14T01:56:39;101139.19;;;17.76;77.40
35910;BME280;22004;49.120;-0.200;2023-06-14T01:59:05;101149.41;;;17.68;77.73
35910;BME280;22004;49.120;-0.200;2023-06-14T02:01:30;101144.00;;;17.68;77.39
35910;BME280;22004;49.120;-0.200;2023-06-14T02:03:56;101139.19;;;17.76;77.59
35910;BME280;22004;49.120;-0.200;2023-06-14T02:06:21;101138.97;;;17.65;76.93
35910;BME280;22004;49.120;-0.200;2023-06-14T02:08:46;101135.00;;;17.67;77.73
35910;BME280;22004;49.120;-0.200;2023-06-14T02:11:12;101137.50;;;17.75;77.17
35910;BME280;22004;49.120;-0.200;2023-06-14T02:13:37;101138.53;;;17.74;77.35
35910;BME280;22004;49.120;-0.200;2023-06-14T02:16:03;101137.97;;;17.66;77.53
35910;BME280;22004;49.120;-0.200;2023-06-14T02:18:28;101136.31;;;17.58;77.38
35910;BME280;22004;49.120;-0.200;2023-06-14T02:20:54;101146.69;;;17.68;77.65
35910;BME280;22004;49.120;-0.200;2023-06-14T02:23:19;101137.50;;;17.69;77.76
35910;BME280;22004;49.120;-0.200;2023-06-14T02:25:44;101130.06;;;17.57;77.88
35910;BME280;22004;49.120;-0.200;2023-06-14T02:28:11;101130.84;;;17.65;77.78
35910;BME280;22004;49.120;-0.200;2023-06-14T02:30:36;101135.66;;;17.63;77.50
35910;BME280;22004;49.120;-0.200;2023-06-14T02:33:02;101146.16;;;17.52;77.71
35910;BME280;22004;49.120;-0.200;2023-06-14T02:35:28;101141.25;;;17.74;77.52
35910;BME280;22004;49.120;-0.200;2023-06-14T02:37:53;101133.22;;;17.48;78.03
35910;BME280;22004;49.120;-0.200;2023-06-14T02:40:19;101137.78;;;17.61;78.02
35910;BME280;22004;49.120;-0.200;2023-06-14T02:42:45;101144.81;;;17.68;77.83
35910;BME280;22004;49.120;-0.200;2023-06-14T02:45:10;101137.78;;;17.61;77.98
35910;BME280;22004;49.120;-0.200;2023-06-14T02:47:35;101134.59;;;17.64;77.81
35910;BME280;22004;49.120;-0.200;2023-06-14T02:50:01;101128.13;;;17.65;77.65
35910;BME280;22004;49.120;-0.200;2023-06-14T02:52:28;101131.91;;;17.64;77.80
35910;BME280;22004;49.120;-0.200;2023-06-14T02:54:53;101132.94;;;17.63;77.96
35910;BME280;22004;49.120;-0.200;2023-06-14T02:57:20;101132.34;;;17.54;78.38
35910;BME280;22004;49.120;-0.200;2023-06-14T02:59:45;101121.72;;;17.52;77.62
35910;BME280;22004;49.120;-0.200;2023-06-14T03:02:10;101126.56;;;17.50;78.22
35910;BME280;22004;49.120;-0.200;2023-06-14T03:04:36;101124.31;;;17.34;78.98
35910;BME280;22004;49.120;-0.200;2023-06-14T03:07:03;101122.34;;;17.54;77.95
35910;BME280;22004;49.120;-0.200;2023-06-14T03:09:34;101133.81;;;17.56;77.96
35910;BME280;22004;49.120;-0.200;2023-06-14T03:12:00;101138.25;;;17.51;78.33
35910;BME280;22004;49.120;-0.200;2023-06-14T03:14:25;101135.72;;;17.56;77.97
35910;BME280;22004;49.120;-0.200;2023-06-14T03:16:50;101130.63;;;17.28;79.03
35910;BME280;22004;49.120;-0.200;2023-06-14T03:19:16;101139.72;;;17.47;78.74
35910;BME280;22004;49.120;-0.200;2023-06-14T03:21:41;101139.25;;;17.56;78.23
35910;BME280;22004;49.120;-0.200;2023-06-14T03:24:09;101145.34;;;17.45;78.57
35910;BME280;22004;49.120;-0.200;2023-06-14T03:26:35;101146.16;;;17.52;78.05
35910;BME280;22004;49.120;-0.200;2023-06-14T03:29:02;101146.75;;;17.61;77.88
35910;BME280;22004;49.120;-0.200;2023-06-14T03:31:29;101148.09;;;17.39;78.38
35910;BME280;22004;49.120;-0.200;2023-06-14T03:33:58;101153.31;;;17.40;77.99
35910;BME280;22004;49.120;-0.200;2023-06-14T03:36:23;101152.66;;;17.51;78.21
35910;BME280;22004;49.120;-0.200;2023-06-14T03:38:48;101150.75;;;17.52;78.40
35910;BME280;22004;49.120;-0.200;2023-06-14T03:41:14;101150.63;;;17.34;78.51
35910;BME280;22004;49.120;-0.200;2023-06-14T03:43:39;101155.53;;;17.56;78.14
35910;BME280;22004;49.120;-0.200;2023-06-14T03:46:04;101158.03;;;17.58;77.91
35910;BME280;22004;49.120;-0.200;2023-06-14T03:48:30;101156.19;;;17.52;77.97
35910;BME280;22004;49.120;-0.200;2023-06-14T03:50:55;101159.97;;;17.44;78.38
35910;BME280;22004;49.120;-0.200;2023-06-14T03:53:21;101151.50;;;17.27;78.99
35910;BME280;22004;49.120;-0.200;2023-06-14T03:55:49;101163.38;;;17.33;78.40
35910;BME280;22004;49.120;-0.200;2023-06-14T03:58:15;101158.34;;;17.37;78.84
35910;BME280;22004;49.120;-0.200;2023-06-14T04:00:41;101169.13;;;17.50;77.96
35910;BME280;22004;49.120;-0.200;2023-06-14T04:03:06;101167.53;;;17.36;78.76
35910;BME280;22004;49.120;-0.200;2023-06-14T04:05:32;101165.41;;;17.44;78.33
35910;BME280;22004;49.120;-0.200;2023-06-14T04:07:57;101169.25;;;17.23;78.39
35910;BME280;22004;49.120;-0.200;2023-06-14T04:10:24;101168.00;;;17.19;78.55
35910;BME280;22004;49.120;-0.200;2023-06-14T04:12:49;101166.03;;;17.40;78.45
35910;BME280;22004;49.120;-0.200;2023-06-14T04:15:15;101175.25;;;17.39;78.53
35910;BME280;22004;49.120;-0.200;2023-06-14T04:17:41;101173.16;;;17.41;78.56
35910;BME280;22004;49.120;-0.200;2023-06-14T04:20:07;101176.91;;;17.46;78.32
35910;BME280;22004;49.120;-0.200;2023-06-14T04:22:34;101165.25;;;17.33;78.18
35910;BME280;22004;49.120;-0.200;2023-06-14T04:24:59;101172.97;;;17.29;79.05
35910;BME280;22004;49.120;-0.200;2023-06-14T04:27:28;101174.41;;;17.38;78.67
35910;BME280;22004;49.120;-0.200;2023-06-14T04:29:56;101178.78;;;17.39;78.57
35910;BME280;22004;49.120;-0.200;2023-06-14T04:32:28;101182.56;;;17.38;77.89
35910;BME280;22004;49.120;-0.200;2023-06-14T04:34:59;101184.81;;;17.48;78.28
35910;BME280;22004;49.120;-0.200;2023-06-14T04:37:27;101197.38;;;17.42;77.99
35910;BME280;22004;49.120;-0.200;2023-06-14T04:39:55;101200.03;;;17.49;77.98
35910;BME280;22004;49.120;-0.200;2023-06-14T04:42:21;101199.63;;;17.52;77.99
35910;BME280;22004;49.120;-0.200;2023-06-14T04:44:50;101196.06;;;17.51;77.87
35910;BME280;22004;49.120;-0.200;2023-06-14T04:47:16;101196.06;;;17.51;78.05
35910;BME280;22004;49.120;-0.200;2023-06-14T04:49:42;101201.69;;;17.50;77.31
35910;BME280;22004;49.120;-0.200;2023-06-14T04:52:07;101197.31;;;17.55;77.80
35910;BME280;22004;49.120;-0.200;2023-06-14T04:54:36;101213.19;;;17.45;77.69
35910;BME280;22004;49.120;-0.200;2023-06-14T04:57:03;101196.28;;;17.50;78.04
35910;BME280;22004;49.120;-0.200;2023-06-14T04:59:29;101204.56;;;17.68;77.39
35910;BME280;22004;49.120;-0.200;2023-06-14T05:01:58;101206.06;;;17.57;77.51
35910;BME280;22004;49.120;-0.200;2023-06-14T05:04:25;101213.34;;;17.70;77.05
35910;BME280;22004;49.120;-0.200;2023-06-14T05:06:52;101210.22;;;17.60;76.73
35910;BME280;22004;49.120;-0.200;2023-06-14T05:09:19;101215.47;;;17.62;77.40
35910;BME280;22004;49.120;-0.200;2023-06-14T05:11:45;101218.97;;;17.75;77.22
35910;BME280;22004;49.120;-0.200;2023-06-14T05:14:11;101215.00;;;17.78;76.60
35910;BME280;22004;49.120;-0.200;2023-06-14T05:16:37;101218.72;;;17.83;76.73
35910;BME280;22004;49.120;-0.200;2023-06-14T05:19:03;101215.81;;;17.78;76.61
35910;BME280;22004;49.120;-0.200;2023-06-14T05:21:29;101228.38;;;17.66;77.07
35910;BME280;22004;49.120;-0.200;2023-06-14T05:23:55;101221.66;;;17.82;76.56
35910;BME280;22004;49.120;-0.200;2023-06-14T05:26:21;101226.63;;;17.85;76.62
35910;BME280;22004;49.120;-0.200;2023-06-14T05:28:48;101226.41;;;17.93;76.19
35910;BME280;22004;49.120;-0.200;2023-06-14T05:31:14;101222.47;;;17.82;76.61
35910;BME280;22004;49.120;-0.200;2023-06-14T05:33:40;101220.84;;;17.68;76.85
35910;BME280;22004;49.120;-0.200;2023-06-14T05:36:05;101230.41;;;17.91;76.28
35910;BME280;22004;49.120;-0.200;2023-06-14T05:38:31;101231.59;;;18.01;75.98
35910;BME280;22004;49.120;-0.200;2023-06-14T05:40:56;101235.38;;;17.94;76.18
35910;BME280;22004;49.120;-0.200;2023-06-14T05:43:21;101239.72;;;18.01;76.10
35910;BME280;22004;49.120;-0.200;2023-06-14T05:45:46;101236.91;;;17.83;76.70
35910;BME280;22004;49.120;-0.200;2023-06-14T05:48:12;101244.91;;;17.58;77.51
35910;BME280;22004;49.120;-0.200;2023-06-14T05:50:37;101247.16;;;17.81;76.71
35910;BME280;22004;49.120;-0.200;2023-06-14T05:53:02;101247.41;;;18.11;76.03
35910;BME280;22004;49.120;-0.200;2023-06-14T05:55:28;101251.22;;;18.03;76.60
35910;BME280;22004;49.120;-0.200;2023-06-14T05:57:53;101245.28;;;18.45;75.23
35910;BME280;22004;49.120;-0.200;2023-06-14T06:00:19;101251.56;;;19.02;72.83
35910;BME280;22004;49.120;-0.200;2023-06-14T06:02:45;101250.66;;;19.08;72.80
35910;BME280;22004;49.120;-0.200;2023-06-14T06:05:11;101253.56;;;19.68;70.28
35910;BME280;22004;49.120;-0.200;2023-06-14T06:07:38;101254.38;;;19.87;69.71
35910;BME280;22004;49.120;-0.200;2023-06-14T06:10:05;101257.78;;;18.84;72.75
35910;BME280;22004;49.120;-0.200;2023-06-14T06:12:31;101255.88;;;19.09;72.46
35910;BME280;22004;49.120;-0.200;2023-06-14T06:14:58;101260.44;;;19.52;70.85
35910;BME280;22004;49.120;-0.200;2023-06-14T06:17:24;101262.84;;;19.42;70.88
35910;BME280;22004;49.120;-0.200;2023-06-14T06:19:50;101266.25;;;18.94;73.06
35910;BME280;22004;49.120;-0.200;2023-06-14T06:22:15;101256.75;;;18.85;72.71
35910;BME280;22004;49.120;-0.200;2023-06-14T06:24:40;101257.56;;;18.54;73.66
35910;BME280;22004;49.120;-0.200;2023-06-14T06:27:06;101255.81;;;18.66;73.83
35910;BME280;22004;49.120;-0.200;2023-06-14T06:29:33;101261.22;;;18.73;73.71
35910;BME280;22004;49.120;-0.200;2023-06-14T06:32:00;101257.56;;;18.85;73.21
35910;BME280;22004;49.120;-0.200;2023-06-14T06:34:25;101264.22;;;18.90;73.25
35910;BME280;22004;49.120;-0.200;2023-06-14T06:36:50;101262.44;;;18.77;73.85
35910;BME280;22004;49.120;-0.200;2023-06-14T06:39:16;101261.16;;;18.79;73.59
35910;BME280;22004;49.120;-0.200;2023-06-14T06:41:41;101267.59;;;19.28;72.46
35910;BME280;22004;49.120;-0.200;2023-06-14T06:44:07;101264.31;;;19.81;70.69
35910;BME280;22004;49.120;-0.200;2023-06-14T06:46:33;101268.97;;;19.37;71.78
35910;BME280;22004;49.120;-0.200;2023-06-14T06:48:59;101278.06;;;19.50;72.00
35910;BME280;22004;49.120;-0.200;2023-06-14T06:51:25;101272.34;;;20.55;68.89
35910;BME280;22004;49.120;-0.200;2023-06-14T06:53:53;101278.09;;;20.17;70.45
35910;BME280;22004;49.120;-0.200;2023-06-14T06:56:20;101280.09;;;20.39;69.27
35910;BME280;22004;49.120;-0.200;2023-06-14T06:58:48;101278.31;;;21.10;67.01
35910;BME280;22004;49.120;-0.200;2023-06-14T07:01:13;101279.91;;;20.53;67.92
35910;BME280;22004;49.120;-0.200;2023-06-14T07:03:39;101281.28;;;20.85;67.16
35910;BME280;22004;49.120;-0.200;2023-06-14T07:06:04;101280.28;;;20.38;68.89
35910;BME280;22004;49.120;-0.200;2023-06-14T07:08:30;101284.09;;;20.37;69.07
35910;BME280;22004;49.120;-0.200;2023-06-14T07:10:55;101292.38;;;20.30;69.91
35910;BME280;22004;49.120;-0.200;2023-06-14T07:13:20;101297.78;;;21.02;67.04
35910;BME280;22004;49.120;-0.200;2023-06-14T07:15:46;101296.63;;;19.96;70.12
35910;BME280;22004;49.120;-0.200;2023-06-14T07:18:12;101305.91;;;20.67;68.47
35910;BME280;22004;49.120;-0.200;2023-06-14T07:20:37;101301.22;;;21.21;67.42
35910;BME280;22004;49.120;-0.200;2023-06-14T07:23:03;101304.63;;;20.93;67.72
35910;BME280;22004;49.120;-0.200;2023-06-14T07:25:29;101311.47;;;20.49;69.87
35910;BME280;22004;49.120;-0.200;2023-06-14T07:27:54;101298.59;;;21.61;66.86
35910;BME280;22004;49.120;-0.200;2023-06-14T07:30:20;101299.00;;;21.41;66.17
35910;BME280;22004;49.120;-0.200;2023-06-14T07:32:46;101306.41;;;22.50;62.96
35910;BME280;22004;49.120;-0.200;2023-06-14T07:35:11;101306.22;;;21.24;66.27
35910;BME280;22004;49.120;-0.200;2023-06-14T07:37:36;101307.31;;;21.99;64.82
35910;BME280;22004;49.120;-0.200;2023-06-14T07:40:02;101311.56;;;22.06;65.49
35910;BME280;22004;49.120;-0.200;2023-06-14T07:42:33;101313.84;;;23.34;62.49
35910;BME280;22004;49.120;-0.200;2023-06-14T07:44:58;101310.84;;;23.35;61.93
35910;BME280;22004;49.120;-0.200;2023-06-14T07:47:23;101311.31;;;23.49;60.07
35910;BME280;22004;49.120;-0.200;2023-06-14T07:49:48;101317.41;;;23.34;61.92
35910;BME280;22004;49.120;-0.200;2023-06-14T07:52:14;101318.22;;;23.35;62.39
35910;BME280;22004;49.120;-0.200;2023-06-14T07:54:39;101311.50;;;22.58;64.46
35910;BME280;22004;49.120;-0.200;2023-06-14T07:57:06;101316.97;;;22.58;63.21
35910;BME280;22004;49.120;-0.200;2023-06-14T07:59:31;101317.63;;;23.88;61.86
35910;BME280;22004;49.120;-0.200;2023-06-14T08:01:57;101314.94;;;23.55;60.95
35910;BME280;22004;49.120;-0.200;2023-06-14T08:04:22;101319.53;;;22.65;62.72
35910;BME280;22004;49.120;-0.200;2023-06-14T08:06:48;101315.75;;;22.37;63.71
35910;BME280;22004;49.120;-0.200;2023-06-14T08:09:14;101316.47;;;22.61;61.94
35910;BME280;22004;49.120;-0.200;2023-06-14T08:11:39;101318.47;;;22.66;65.15
35910;BME280;22004;49.120;-0.200;2023-06-14T08:14:05;101323.59;;;23.63;62.82
35910;BME280;22004;49.120;-0.200;2023-06-14T08:16:30;101326.16;;;24.63;61.73
35910;BME280;22004;49.120;-0.200;2023-06-14T08:18:55;101319.41;;;25.08;59.34
35910;BME280;22004;49.120;-0.200;2023-06-14T08:21:21;101328.81;;;25.59;59.47
35910;BME280;22004;49.120;-0.200;2023-06-14T08:23:46;101324.09;;;25.49;58.96
35910;BME280;22004;49.120;-0.200;2023-06-14T08:26:12;101321.91;;;25.51;58.05
35910;BME280;22004;49.120;-0.200;2023-06-14T08:28:37;101326.72;;;25.29;58.73
35910;BME280;22004;49.120;-0.200;2023-06-14T08:31:03;101330.03;;;25.31;57.19
35910;BME280;22004;49.120;-0.200;2023-06-14T08:33:28;101327.34;;;25.89;56.79
35910;BME280;22004;49.120;-0.200;2023-06-14T08:35:53;101334.75;;;25.83;57.61
35910;BME280;22004;49.120;-0.200;2023-06-14T08:38:19;101323.75;;;25.83;58.85
35910;BME280;22004;49.120;-0.200;2023-06-14T08:40:48;101325.78;;;25.61;58.48
35910;BME280;22004;49.120;-0.200;2023-06-14T08:43:15;101333.31;;;25.75;56.66
35910;BME280;22004;49.120;-0.200;2023-06-14T08:45:41;101320.69;;;25.80;56.51
35910;BME280;22004;49.120;-0.200;2023-06-14T08:48:07;101326.66;;;25.61;57.55
35910;BME280;22004;49.120;-0.200;2023-06-14T08:50:34;101321.38;;;26.07;58.08
35910;BME280;22004;49.120;-0.200;2023-06-14T08:53:02;101320.47;;;25.86;58.70
35910;BME280;22004;49.120;-0.200;2023-06-14T08:55:29;101328.28;;;25.62;58.59
35910;BME280;22004;49.120;-0.200;2023-06-14T08:57:56;101333.09;;;25.82;58.56
35910;BME280;22004;49.120;-0.200;2023-06-14T09:00:25;101331.16;;;25.77;59.57
35910;BME280;22004;49.120;-0.200;2023-06-14T09:02:51;101325.50;;;25.57;58.06
35910;BME280;22004;49.120;-0.200;2023-06-14T09:05:24;101334.06;;;26.28;59.16
35910;BME280;22004;49.120;-0.200;2023-06-14T09:07:50;101330.09;;;25.94;56.81
35910;BME280;22004;49.120;-0.200;2023-06-14T09:10:16;101333.22;;;26.18;56.81
35910;BME280;22004;49.120;-0.200;2023-06-14T09:12:42;101335.19;;;26.27;58.64
35910;BME280;22004;49.120;-0.200;2023-06-14T09:15:08;101332.53;;;26.84;53.60
35910;BME280;22004;49.120;-0.200;2023-06-14T09:17:43;101336.97;;;27.25;53.42
35910;BME280;22004;49.120;-0.200;2023-06-14T09:20:09;101333.91;;;26.66;54.70
35910;BME280;22004;49.120;-0.200;2023-06-14T09:22:39;101327.59;;;26.80;58.11
35910;BME280;22004;49.120;-0.200;2023-06-14T09:25:05;101334.16;;;26.54;56.15
35910;BME280;22004;49.120;-0.200;2023-06-14T09:27:32;101340.25;;;26.76;55.87
35910;BME280;22004;49.120;-0.200;2023-06-14T09:29:58;101336.13;;;26.84;55.02
35910;BME280;22004;49.120;-0.200;2023-06-14T09:32:23;101330.59;;;26.94;53.94
35910;BME280;22004;49.120;-0.200;2023-06-14T09:34:49;101332.81;;;26.57;56.36
35910;BME280;22004;49.120;-0.200;2023-06-14T09:37:31;101336.69;;;26.76;53.84
35910;BME280;22004;49.120;-0.200;2023-06-14T09:39:58;101339.94;;;27.49;53.38
35910;BME280;22004;49.120;-0.200;2023-06-14T09:42:23;101340.50;;;26.85;54.70
35910;BME280;22004;49.120;-0.200;2023-06-14T09:44:55;101336.91;;;27.51;54.70
35910;BME280;22004;49.120;-0.200;2023-06-14T09:47:21;101338.75;;;27.91;52.54
35910;BME280;22004;49.120;-0.200;2023-06-14T09:49:47;101334.22;;;27.10;52.76
35910;BME280;22004;49.120;-0.200;2023-06-14T09:52:18;101342.19;;;27.27;54.13
35910;BME280;22004;49.120;-0.200;2023-06-14T09:54:46;101332.25;;;26.90;50.51
35910;BME280;22004;49.120;-0.200;2023-06-14T09:57:13;101334.22;;;27.20;53.72
35910;BME280;22004;49.120;-0.200;2023-06-14T09:59:43;101329.94;;;27.84;53.73
35910;BME280;22004;49.120;-0.200;2023-06-14T10:02:22;101343.47;;;27.80;51.29
35910;BME280;22004;49.120;-0.200;2023-06-14T10:04:58;101343.25;;;27.51;51.41
35910;BME280;22004;49.120;-0.200;2023-06-14T10:07:30;101330.81;;;27.59;49.48
35910;BME280;22004;49.120;-0.200;2023-06-14T10:09:57;101342.63;;;27.70;49.54
35910;BME280;22004;49.120;-0.200;2023-06-14T10:12:23;101346.88;;;27.01;51.57
35910;BME280;22004;49.120;-0.200;2023-06-14T10:14:49;101338.56;;;26.60;52.51
35910;BME280;22004;49.120;-0.200;2023-06-14T10:20:27;101340.56;;;27.26;51.03
35910;BME280;22004;49.120;-0.200;2023-06-14T10:23:03;101335.50;;;27.64;51.13
35910;BME280;22004;49.120;-0.200;2023-06-14T10:25:33;101336.69;;;27.06;50.51
35910;BME280;22004;49.120;-0.200;2023-06-14T10:28:18;101334.97;;;27.51;51.07
35910;BME280;22004;49.120;-0.200;2023-06-14T10:31:19;101333.91;;;27.37;50.11
35910;BME280;22004;49.120;-0.200;2023-06-14T10:33:50;101332.47;;;27.65;50.17
35910;BME280;22004;49.120;-0.200;2023-06-14T10:38:57;101334.22;;;27.30;49.20
35910;BME280;22004;49.120;-0.200;2023-06-14T10:41:23;101342.44;;;27.05;51.94
35910;BME280;22004;49.120;-0.200;2023-06-14T10:43:48;101348.25;;;27.24;50.19
35910;BME280;22004;49.120;-0.200;2023-06-14T10:46:17;101341.34;;;27.47;50.35
35910;BME280;22004;49.120;-0.200;2023-06-14T10:48:44;101334.38;;;27.65;48.47
35910;BME280;22004;49.120;-0.200;2023-06-14T10:51:16;101331.34;;;27.66;51.35
35910;BME280;22004;49.120;-0.200;2023-06-14T10:53:48;101334.97;;;27.51;48.53
35910;BME280;22004;49.120;-0.200;2023-06-14T10:56:29;101332.50;;;27.55;48.29
35910;BME280;22004;49.120;-0.200;2023-06-14T10:58:57;101326.97;;;27.50;48.55
35910;BME280;22004;49.120;-0.200;2023-06-14T11:01:54;101331.88;;;27.78;48.89
35910;BME280;22004;49.120;-0.200;2023-06-14T11:04:48;101335.75;;;27.82;49.52
35910;BME280;22004;49.120;-0.200;2023-06-14T11:12:48;101338.88;;;27.15;50.65
35910;BME280;22004;49.120;-0.200;2023-06-14T11:15:14;101335.47;;;27.79;49.21
35910;BME280;22004;49.120;-0.200;2023-06-14T11:17:50;101336.41;;;27.23;49.62
35910;BME280;22004;49.120;-0.200;2023-06-14T11:20:16;101324.28;;;26.94;48.72
35910;BME280;22004;49.120;-0.200;2023-06-14T11:22:42;101333.06;;;27.47;49.78
35910;BME280;22004;49.120;-0.200;2023-06-14T11:25:14;101324.16;;;27.80;51.20
35910;BME280;22004;49.120;-0.200;2023-06-14T11:27:42;101334.16;;;27.51;48.81
35910;BME280;22004;49.120;-0.200;2023-06-14T11:30:08;101319.59;;;26.84;51.92
35910;BME280;22004;49.120;-0.200;2023-06-14T11:32:35;101318.41;;;27.62;49.17
35910;BME280;22004;49.120;-0.200;2023-06-14T11:35:02;101319.81;;;27.49;49.98
35910;BME280;22004;49.120;-0.200;2023-06-14T11:37:28;101318.22;;;27.07;51.94
35910;BME280;22004;49.120;-0.200;2023-06-14T11:39:58;101318.22;;;27.17;50.93
35910;BME280;22004;49.120;-0.200;2023-06-14T11:42:26;101316.00;;;26.68;51.60
35910;BME280;22004;49.120;-0.200;2023-06-14T11:44:51;101320.16;;;27.17;50.16
35910;BME280;22004;49.120;-0.200;2023-06-14T11:47:18;101320.31;;;27.76;48.84
35910;BME280;22004;49.120;-0.200;2023-06-14T11:49:43;101318.72;;;27.45;50.07
35910;BME280;22004;49.120;-0.200;2023-06-14T11:52:08;101317.56;;;27.76;48.71
35910;BME280;22004;49.120;-0.200;2023-06-14T11:54:34;101306.84;;;27.49;47.90
35910;BME280;22004;49.120;-0.200;2023-06-14T11:57:00;101311.75;;;27.68;49.21
35910;BME280;22004;49.120;-0.200;2023-06-14T11:59:26;101309.16;;;28.02;47.63
35910;BME280;22004;49.120;-0.200;2023-06-14T12:01:53;101317.06;;;27.39;48.87
35910;BME280;22004;49.120;-0.200;2023-06-14T12:04:28;101307.09;;;27.58;49.61
35910;BME280;22004;49.120;-0.200;2023-06-14T12:06:54;101303.00;;;27.55;49.00
35910;BME280;22004;49.120;-0.200;2023-06-14T12:09:21;101301.81;;;27.77;49.30
35910;BME280;22004;49.120;-0.200;2023-06-14T12:11:48;101308.84;;;26.98;50.07
35910;BME280;22004;49.120;-0.200;2023-06-14T12:14:14;101307.19;;;27.27;49.22
35910;BME280;22004;49.120;-0.200;2023-06-14T12:16:39;101305.28;;;27.13;49.15
35910;BME280;22004;49.120;-0.200;2023-06-14T12:19:14;101305.75;;;27.55;49.30
35910;BME280;22004;49.120;-0.200;2023-06-14T12:21:41;101303.28;;;27.39;49.21
35910;BME280;22004;49.120;-0.200;2023-06-14T12:24:07;101305.81;;;27.10;49.25
35910;BME280;22004;49.120;-0.200;2023-06-14T12:26:33;101312.44;;;26.83;50.02
35910;BME280;22004;49.120;-0.200;2023-06-14T12:28:59;101308.84;;;27.28;49.97
35910;BME280;22004;49.120;-0.200;2023-06-14T12:31:24;101311.31;;;27.35;49.60
35910;BME280;22004;49.120;-0.200;2023-06-14T12:33:51;101314.81;;;27.61;49.86
35910;BME280;22004;49.120;-0.200;2023-06-14T12:36:16;101306.09;;;26.93;52.13
35910;BME280;22004;49.120;-0.200;2023-06-14T12:38:42;101318.75;;;27.35;50.29
35910;BME280;22004;49.120;-0.200;2023-06-14T12:41:08;101317.41;;;26.91;52.33
35910;BME280;22004;49.120;-0.200;2023-06-14T12:43:33;101316.84;;;26.74;50.93
35910;BME280;22004;49.120;-0.200;2023-06-14T12:45:59;101321.53;;;27.14;51.78
35910;BME280;22004;49.120;-0.200;2023-06-14T12:48:25;101320.97;;;26.97;52.01
35910;BME280;22004;49.120;-0.200;2023-06-14T12:50:52;101316.00;;;26.73;51.31
35910;BME280;22004;49.120;-0.200;2023-06-14T12:53:18;101322.34;;;26.69;50.91